createdAt,value
2019-03-12T00:00:27.755Z,96.90
2019-03-12T00:02:56.491Z,97.10
2019-03-12T00:05:25.407Z,97.10
2019-03-12T00:07:54.298Z,97.10
2019-03-12T00:10:23.115Z,97.10
2019-03-12T00:12:51.947Z,97.10
2019-03-12T00:15:20.771Z,97.00
2019-03-12T00:17:49.562Z,97.10
2019-03-12T00:20:18.364Z,97.10
2019-03-12T00:22:49.003Z,97.10
2019-03-12T00:25:17.777Z,97.10
2019-03-12T00:27:46.635Z,97.10
2019-03-12T00:30:15.548Z,97.10
2019-03-12T00:32:44.393Z,97.20
2019-03-12T00:35:13.145Z,97.10
2019-03-12T00:37:42.075Z,97.10
2019-03-12T00:40:10.924Z,97.10
2019-03-12T00:42:39.755Z,97.10
2019-03-12T00:45:12.259Z,97.10
2019-03-12T00:47:41.035Z,97.50
2019-03-12T00:50:11.684Z,97.20
2019-03-12T00:52:40.571Z,97.20
2019-03-12T00:55:09.995Z,97.20
2019-03-12T00:57:38.827Z,97.20
2019-03-12T01:00:10.668Z,97.30
2019-03-12T01:02:39.412Z,97.40
2019-03-12T01:05:08.221Z,97.30
2019-03-12T01:07:37.036Z,97.30
2019-03-12T01:10:08.588Z,97.30
2019-03-12T01:12:37.411Z,97.30
2019-03-12T01:15:09.053Z,97.40
2019-03-12T01:17:37.883Z,97.40
2019-03-12T01:20:12.603Z,97.40
2019-03-12T01:22:41.419Z,97.20
2019-03-12T01:25:11.956Z,97.10
2019-03-12T01:27:41.192Z,97.20
2019-03-12T01:30:19.052Z,96.90
2019-03-12T01:32:47.828Z,96.70
2019-03-12T01:35:16.644Z,96.70
2019-03-12T01:37:45.515Z,96.60
2019-03-12T01:40:14.811Z,96.70
2019-03-12T01:42:43.619Z,96.70
2019-03-12T01:45:14.349Z,96.70
2019-03-12T01:47:43.082Z,97.10
2019-03-12T01:50:13.723Z,96.80
2019-03-12T01:52:42.604Z,97.00
2019-03-12T01:55:13.612Z,97.10
2019-03-12T01:57:42.396Z,97.20
2019-03-12T02:00:14.213Z,97.10
2019-03-12T02:02:42.971Z,97.10
2019-03-12T02:05:11.715Z,97.10
2019-03-12T02:07:40.538Z,97.00
2019-03-12T02:10:11.580Z,97.10
2019-03-12T02:12:40.331Z,97.10
2019-03-12T02:15:16.267Z,97.10
2019-03-12T02:17:45.107Z,97.10
2019-03-12T02:20:16.036Z,97.10
2019-03-12T02:22:44.940Z,97.20
2019-03-12T02:25:21.083Z,97.20
2019-03-12T02:27:49.978Z,97.10
2019-03-12T02:30:20.808Z,96.90
2019-03-12T02:32:49.533Z,96.70
2019-03-12T02:35:18.350Z,96.70
2019-03-12T02:37:47.131Z,96.50
2019-03-12T02:40:17.355Z,96.50
2019-03-12T02:42:46.156Z,96.60
2019-03-12T02:45:16.181Z,96.60
2019-03-12T02:47:44.967Z,96.70
2019-03-12T02:50:14.864Z,96.80
2019-03-12T02:52:43.806Z,96.80
2019-03-12T02:55:13.611Z,96.90
2019-03-12T02:57:42.500Z,96.90
2019-03-12T03:00:23.257Z,96.90
2019-03-12T03:02:52.220Z,97.00
2019-03-12T03:05:21.050Z,97.10
2019-03-12T03:07:53.914Z,97.10
2019-03-12T03:10:22.867Z,97.20
2019-03-12T03:12:51.833Z,97.20
2019-03-12T03:15:34.226Z,97.20
2019-03-12T03:18:03.011Z,97.10
2019-03-12T03:20:31.788Z,97.20
2019-03-12T03:23:00.676Z,97.20
2019-03-12T03:25:29.507Z,97.20
2019-03-12T03:27:58.275Z,97.20
2019-03-12T03:30:27.566Z,97.20
2019-03-12T03:32:56.732Z,97.20
2019-03-12T03:35:25.455Z,97.20
2019-03-12T03:37:54.295Z,97.20
2019-03-12T03:40:23.316Z,97.20
2019-03-12T03:42:52.151Z,97.10
2019-03-12T03:45:21.075Z,97.10
2019-03-12T03:47:49.845Z,97.10
2019-03-12T03:50:18.798Z,97.10
2019-03-12T03:52:47.695Z,97.10
2019-03-12T03:55:18.296Z,97.10
2019-03-12T03:57:47.051Z,97.10
2019-03-12T04:00:20.718Z,97.00
2019-03-12T04:02:49.528Z,96.80
2019-03-12T04:05:18.636Z,96.80
2019-03-12T04:07:47.466Z,96.80
2019-03-12T04:10:16.644Z,96.80
2019-03-12T04:12:45.476Z,96.70
2019-03-12T04:15:17.275Z,96.60
2019-03-12T04:17:46.083Z,96.60
2019-03-12T04:20:16.459Z,96.50
2019-03-12T04:22:45.329Z,96.60
2019-03-12T04:25:14.156Z,96.70
2019-03-12T04:27:42.909Z,96.70
2019-03-12T04:30:19.524Z,96.70
2019-03-12T04:32:48.315Z,96.70
2019-03-12T04:35:20.165Z,96.60
2019-03-12T04:37:49.039Z,96.60
2019-03-12T04:40:17.900Z,96.60
2019-03-12T04:42:46.625Z,96.50
2019-03-12T04:45:16.947Z,96.50
2019-03-12T04:47:45.763Z,96.40
2019-03-12T04:50:15.627Z,96.40
2019-03-12T04:52:44.389Z,96.40
2019-03-12T04:55:15.052Z,96.20
2019-03-12T04:57:44.007Z,96.30
2019-03-12T05:00:15.747Z,96.30
2019-03-12T05:02:44.602Z,96.20
2019-03-12T05:05:13.531Z,96.20
2019-03-12T05:07:42.413Z,96.20
2019-03-12T05:10:13.855Z,96.20
2019-03-12T05:12:42.658Z,96.30
2019-03-12T05:15:18.577Z,96.30
2019-03-12T05:17:47.335Z,96.20
2019-03-12T05:20:16.435Z,96.50
2019-03-12T05:22:45.511Z,96.50
2019-03-12T05:25:15.132Z,96.10
2019-03-12T05:27:43.947Z,96.20
2019-03-12T05:30:20.493Z,96.20
2019-03-12T05:32:49.244Z,96.30
2019-03-12T05:35:21.054Z,96.20
2019-03-12T05:37:51.453Z,96.20
2019-03-12T05:40:20.283Z,96.20
2019-03-12T05:42:49.156Z,96.20
2019-03-12T05:45:20.709Z,96.20
2019-03-12T05:47:49.491Z,96.40
2019-03-12T05:50:19.402Z,96.10
2019-03-12T05:52:49.515Z,96.00
2019-03-12T05:55:18.692Z,95.90
2019-03-12T05:57:47.492Z,96.00
2019-03-12T06:00:20.123Z,96.10
2019-03-12T06:02:48.893Z,96.10
2019-03-12T06:05:17.652Z,96.00
2019-03-12T06:07:46.461Z,96.00
2019-03-12T06:10:16.106Z,96.10
2019-03-12T06:12:45.948Z,96.10
2019-03-12T06:15:15.964Z,96.10
2019-03-12T06:17:44.931Z,96.00
2019-03-12T06:20:14.632Z,96.00
2019-03-12T06:22:43.619Z,95.80
2019-03-12T06:25:13.092Z,95.70
2019-03-12T06:27:41.956Z,95.60
2019-03-12T06:30:19.364Z,95.10
2019-03-12T06:32:55.452Z,95.10
2019-03-12T06:35:28.636Z,95.20
2019-03-12T06:38:01.772Z,95.10
2019-03-12T06:40:43.898Z,95.20
2019-03-12T06:43:20.044Z,95.00
2019-03-12T06:45:53.540Z,94.90
2019-03-12T06:48:31.227Z,94.40
2019-03-12T06:51:13.274Z,94.60
2019-03-12T06:53:52.883Z,94.70
2019-03-12T06:56:29.129Z,94.60
2019-03-12T06:59:15.972Z,94.70
2019-03-12T07:02:01.498Z,94.80
2019-03-12T07:04:31.906Z,94.60
2019-03-12T07:07:16.949Z,94.60
2019-03-12T07:09:52.099Z,94.70
2019-03-12T07:12:22.550Z,95.00
2019-03-12T07:14:58.787Z,94.20
2019-03-12T07:17:41.356Z,93.30
2019-03-12T07:20:17.940Z,93.40
2019-03-12T07:22:57.019Z,93.90
2019-03-12T07:25:33.242Z,93.30
2019-03-12T07:28:03.699Z,93.40
2019-03-12T07:30:37.021Z,93.50
2019-03-12T07:33:10.339Z,93.80
2019-03-12T07:35:55.650Z,93.60
2019-03-12T07:38:37.827Z,93.50
2019-03-12T07:41:08.213Z,93.30
2019-03-12T07:43:50.464Z,93.60
2019-03-12T07:46:26.725Z,93.70
2019-03-12T07:49:03.167Z,93.10
2019-03-12T07:51:49.572Z,93.10
2019-03-12T07:54:25.806Z,93.70
2019-03-12T07:57:04.818Z,93.10
2019-03-12T07:59:51.710Z,92.60
2019-03-12T08:02:24.831Z,92.80
2019-03-12T08:04:58.091Z,92.50
2019-03-12T08:07:31.089Z,92.00
2019-03-12T08:10:04.156Z,92.40
2019-03-12T08:12:37.044Z,92.50
2019-03-12T08:15:22.523Z,92.60
2019-03-12T08:17:44.842Z,92.70
2019-03-12T08:20:15.252Z,92.50
2019-03-12T08:22:45.724Z,92.30
2019-03-12T08:25:21.725Z,92.60
2019-03-12T08:28:01.163Z,92.40
2019-03-12T08:30:34.430Z,92.30
2019-03-12T08:33:17.021Z,92.80
2019-03-12T08:35:53.217Z,92.60
2019-03-12T08:38:23.772Z,92.40
2019-03-12T08:40:54.180Z,92.50
2019-03-12T08:43:24.596Z,92.60
2019-03-12T08:46:10.986Z,92.60
2019-03-12T08:48:47.092Z,92.30
2019-03-12T08:51:17.540Z,92.40
2019-03-12T08:53:50.467Z,92.00
2019-03-12T08:56:20.914Z,92.10
2019-03-12T08:59:07.724Z,91.40
2019-03-12T09:01:56.270Z,91.50
2019-03-12T09:04:26.677Z,91.60
2019-03-12T09:07:05.095Z,91.10
2019-03-12T09:09:34.787Z,91.00
2019-03-12T09:12:21.319Z,91.30
2019-03-12T09:15:06.860Z,91.30
2019-03-12T09:17:37.384Z,91.00
2019-03-12T09:20:10.963Z,90.80
2019-03-12T09:22:57.596Z,91.00
2019-03-12T09:25:33.531Z,90.90
2019-03-12T09:28:22.071Z,90.90
2019-03-12T09:31:07.532Z,90.70
2019-03-12T09:33:37.979Z,90.80
2019-03-12T09:36:08.388Z,91.10
2019-03-12T09:38:47.570Z,90.80
2019-03-12T09:41:17.981Z,91.00
2019-03-12T09:44:00.587Z,91.40
2019-03-12T09:46:47.524Z,91.20
2019-03-12T09:49:17.979Z,91.30
2019-03-12T09:51:48.367Z,91.50
2019-03-12T09:54:24.763Z,92.20
2019-03-12T09:56:55.171Z,92.50
2019-03-12T09:59:31.404Z,92.80
2019-03-12T10:02:01.762Z,92.90
2019-03-12T10:04:48.116Z,93.50
2019-03-12T10:07:18.499Z,93.70
2019-03-12T10:10:04.980Z,93.60
2019-03-12T10:12:35.354Z,93.90
2019-03-12T10:15:07.366Z,93.20
2019-03-12T10:17:37.851Z,93.30
2019-03-12T10:20:10.427Z,93.20
2019-03-12T10:22:46.554Z,93.20
2019-03-12T10:25:22.748Z,93.70
2019-03-12T10:27:59.044Z,93.60
2019-03-12T10:30:47.885Z,94.10
2019-03-12T10:33:18.323Z,93.40
2019-03-12T10:35:51.389Z,92.50
2019-03-12T10:38:58.205Z,92.70
2019-03-12T10:41:37.256Z,93.40
2019-03-12T10:47:03.203Z,92.70
2019-03-12T10:49:37.314Z,91.60
2019-03-12T10:52:02.500Z,90.60
2019-03-12T10:54:31.332Z,90.40
2019-03-12T10:57:00.220Z,89.60
2019-03-12T10:59:29.028Z,90.40
2019-03-12T11:01:57.954Z,89.70
2019-03-12T11:04:26.821Z,88.30
2019-03-12T11:06:55.638Z,84.40
2019-03-12T11:09:24.468Z,83.20
2019-03-12T11:11:53.364Z,82.90
2019-03-12T11:14:22.204Z,82.00
2019-03-12T11:16:50.964Z,83.00
2019-03-12T11:19:19.779Z,80.10
2019-03-12T11:21:48.587Z,76.70
2019-03-12T11:24:17.420Z,75.80
2019-03-12T11:26:46.310Z,76.00
2019-03-12T11:29:15.044Z,76.40
2019-03-12T11:31:43.975Z,77.70
2019-03-12T11:34:12.887Z,76.20
2019-03-12T11:36:41.786Z,75.60
2019-03-12T11:39:10.772Z,76.20
2019-03-12T11:41:39.618Z,75.80
2019-03-12T11:44:08.479Z,74.10
2019-03-12T11:46:44.131Z,74.60
2019-03-12T11:49:07.893Z,74.40
2019-03-12T11:51:36.737Z,74.20
2019-03-12T11:54:05.597Z,74.10
2019-03-12T11:56:34.498Z,72.20
2019-03-12T11:59:03.348Z,69.60
2019-03-12T12:01:32.130Z,70.60
2019-03-12T12:04:01.059Z,71.10
2019-03-12T12:06:29.885Z,70.10
2019-03-12T12:08:58.719Z,70.70
2019-03-12T12:11:27.603Z,69.10
2019-03-12T12:13:56.394Z,69.10
2019-03-12T12:16:25.244Z,66.60
2019-03-12T12:18:54.125Z,68.40
2019-03-12T12:21:22.942Z,68.90
2019-03-12T12:23:51.789Z,68.80
2019-03-12T12:26:20.578Z,71.10
2019-03-12T12:28:49.356Z,69.90
2019-03-12T12:31:18.204Z,71.50
2019-03-12T12:33:47.098Z,71.30
2019-03-12T12:36:15.852Z,70.60
2019-03-12T12:38:44.579Z,69.50
2019-03-12T12:41:13.468Z,71.00
2019-03-12T12:43:42.274Z,68.00
2019-03-12T12:46:11.019Z,68.40
2019-03-12T12:48:39.908Z,67.90
2019-03-12T12:51:08.723Z,64.90
2019-03-12T12:53:37.555Z,65.00
2019-03-12T12:56:06.371Z,65.20
2019-03-12T12:58:35.212Z,66.80
2019-03-12T13:01:03.972Z,65.70
2019-03-12T13:03:32.810Z,65.30
2019-03-12T13:06:01.627Z,66.00
2019-03-12T13:08:30.460Z,64.10
2019-03-12T13:10:59.372Z,65.60
2019-03-12T13:13:28.131Z,64.20
2019-03-12T13:15:56.885Z,64.10
2019-03-12T13:18:25.684Z,66.30
2019-03-12T13:20:54.519Z,66.30
2019-03-12T13:23:23.348Z,66.00
2019-03-12T13:25:52.156Z,65.80
2019-03-12T13:28:20.975Z,64.30
2019-03-12T13:30:49.725Z,63.70
2019-03-12T13:33:18.571Z,62.60
2019-03-12T13:35:49.481Z,64.00
2019-03-12T13:38:17.885Z,64.60
2019-03-12T13:40:46.676Z,62.30
2019-03-12T13:43:15.445Z,61.10
2019-03-12T13:45:44.293Z,62.70
2019-03-12T13:48:13.186Z,60.40
2019-03-12T13:50:42.003Z,61.40
2019-03-12T13:53:10.831Z,62.20
2019-03-12T13:55:39.700Z,60.40
2019-03-12T13:58:08.539Z,60.10
2019-03-12T14:00:37.252Z,60.30
2019-03-12T14:03:06.148Z,60.20
2019-03-12T14:05:34.996Z,62.30
2019-03-12T14:08:03.846Z,61.20
2019-03-12T14:10:32.729Z,61.70
2019-03-12T14:13:01.484Z,60.10
2019-03-12T14:15:35.115Z,58.40
2019-03-12T14:18:04.124Z,59.70
2019-03-12T14:20:52.146Z,57.90
2019-03-12T14:23:29.777Z,58.40
2019-03-12T14:25:58.794Z,58.70
2019-03-12T14:28:27.747Z,59.30
2019-03-12T14:30:56.628Z,58.20
2019-03-12T14:33:25.469Z,57.70
2019-03-12T14:35:54.237Z,58.90
2019-03-12T14:38:23.116Z,57.90
2019-03-12T14:40:51.911Z,58.40
2019-03-12T14:43:20.668Z,57.50
2019-03-12T14:45:52.915Z,59.20
2019-03-12T14:48:42.197Z,59.50
2019-03-12T14:51:23.534Z,58.80
2019-03-12T14:53:55.300Z,58.80
2019-03-12T14:56:27.124Z,58.70
2019-03-12T14:58:55.964Z,59.80
2019-03-12T15:01:24.830Z,61.20
2019-03-12T15:03:54.138Z,62.90
2019-03-12T15:06:23.053Z,62.80
2019-03-12T15:08:51.819Z,59.50
2019-03-12T15:11:20.716Z,60.70
2019-03-12T15:13:49.530Z,60.70
2019-03-12T15:16:18.355Z,63.80
2019-03-12T15:18:47.213Z,61.30
2019-03-12T15:21:16.077Z,62.20
2019-03-12T15:23:44.909Z,62.20
2019-03-12T15:26:13.788Z,64.60
2019-03-12T15:28:42.637Z,63.20
2019-03-12T15:31:11.464Z,62.90
2019-03-12T15:33:40.301Z,64.00
2019-03-12T15:36:09.157Z,63.20
2019-03-12T15:38:38.030Z,63.20
2019-03-12T15:41:06.892Z,61.50
2019-03-12T15:43:35.740Z,62.00
2019-03-12T15:46:04.580Z,61.80
2019-03-12T15:48:33.477Z,64.40
2019-03-12T15:51:02.259Z,63.30
2019-03-12T15:53:31.043Z,63.30
2019-03-12T15:55:59.939Z,65.40
2019-03-12T15:58:28.800Z,64.00
2019-03-12T16:00:57.612Z,63.10
2019-03-12T16:03:26.523Z,63.50
2019-03-12T16:05:55.284Z,60.70
2019-03-12T16:08:24.116Z,63.40
2019-03-12T16:10:58.063Z,61.90
2019-03-12T16:13:23.460Z,64.60
2019-03-12T16:15:52.306Z,64.90
2019-03-12T16:18:21.163Z,65.10
2019-03-12T16:20:49.996Z,66.20
2019-03-12T16:23:18.838Z,64.80
2019-03-12T16:25:47.654Z,65.20
2019-03-12T16:28:16.476Z,65.60
2019-03-12T16:30:45.331Z,66.50
2019-03-12T16:33:14.156Z,66.60
2019-03-12T16:35:43.980Z,66.00
2019-03-12T16:38:12.788Z,66.50
2019-03-12T16:40:41.644Z,67.00
2019-03-12T16:43:10.492Z,67.90
2019-03-12T16:45:39.347Z,68.40
2019-03-12T16:48:08.220Z,67.00
2019-03-12T16:50:37.062Z,67.40
2019-03-12T16:53:05.900Z,66.50
2019-03-12T16:55:34.722Z,67.40
2019-03-12T16:58:03.556Z,67.00
2019-03-12T17:00:32.892Z,68.00
2019-03-12T17:03:01.804Z,68.00
2019-03-12T17:05:30.656Z,67.10
2019-03-12T17:07:59.484Z,68.60
2019-03-12T17:10:28.365Z,67.50
2019-03-12T17:12:57.205Z,69.00
2019-03-12T17:15:28.138Z,68.00
2019-03-12T17:17:57.045Z,68.40
2019-03-12T17:20:25.884Z,68.70
2019-03-12T17:22:54.652Z,69.30
2019-03-12T17:25:23.533Z,68.80
2019-03-12T17:27:52.331Z,68.20
2019-03-12T17:30:22.684Z,69.40
2019-03-12T17:32:51.580Z,68.50
2019-03-12T17:35:29.420Z,68.90
2019-03-12T17:37:58.291Z,70.20
2019-03-12T17:40:27.117Z,68.90
2019-03-12T17:42:56.052Z,70.40
2019-03-12T17:45:25.061Z,70.50
2019-03-12T17:47:54.011Z,70.60
2019-03-12T17:50:22.933Z,69.60
2019-03-12T17:52:51.900Z,70.60
2019-03-12T17:55:20.849Z,69.60
2019-03-12T17:57:50.887Z,70.80
2019-03-12T18:00:31.916Z,69.70
2019-03-12T18:03:00.837Z,70.80
2019-03-12T18:05:29.701Z,71.00
2019-03-12T18:07:58.705Z,70.80
2019-03-12T18:10:27.568Z,70.20
2019-03-12T18:12:56.453Z,70.40
2019-03-12T18:15:25.350Z,71.00
2019-03-12T18:17:54.259Z,70.90
2019-03-12T18:20:23.960Z,70.60
2019-03-12T18:22:53.038Z,71.00
2019-03-12T18:25:29.958Z,71.60
2019-03-12T18:27:58.922Z,71.70
2019-03-12T18:30:27.838Z,71.70
2019-03-12T18:32:56.830Z,71.60
2019-03-12T18:35:25.797Z,71.70
2019-03-12T18:37:54.611Z,70.80
2019-03-12T18:40:24.700Z,71.60
2019-03-12T18:42:53.829Z,70.10
2019-03-12T18:45:30.708Z,71.10
2019-03-12T18:47:59.565Z,70.70
2019-03-12T18:50:28.421Z,70.40
2019-03-12T18:52:57.269Z,70.20
2019-03-12T18:55:37.766Z,72.20
2019-03-12T18:58:09.524Z,72.00
2019-03-12T19:00:44.332Z,71.30
2019-03-12T19:03:13.158Z,70.80
2019-03-12T19:05:41.866Z,71.80
2019-03-12T19:08:10.757Z,69.70
2019-03-12T19:10:39.603Z,70.70
2019-03-12T19:13:08.428Z,70.10
2019-03-12T19:15:37.284Z,69.70
2019-03-12T19:18:06.527Z,70.50
2019-03-12T19:20:35.388Z,68.50
2019-03-12T19:23:04.275Z,69.00
2019-03-12T19:25:38.877Z,68.50
2019-03-12T19:28:07.767Z,68.60
2019-03-12T19:30:36.844Z,68.30
2019-03-12T19:33:12.020Z,68.80
2019-03-12T19:35:40.882Z,69.60
2019-03-12T19:38:09.943Z,67.20
2019-03-12T19:40:46.530Z,67.60
2019-03-12T19:43:15.382Z,68.90
2019-03-12T19:45:44.314Z,67.30
2019-03-12T19:48:13.196Z,68.50
2019-03-12T19:50:42.005Z,68.10
2019-03-12T19:53:10.827Z,67.20
2019-03-12T19:55:47.763Z,67.40
2019-03-12T19:58:16.588Z,67.20
2019-03-12T20:00:46.036Z,67.60
2019-03-12T20:03:15.569Z,67.20
2019-03-12T20:05:44.532Z,67.50
2019-03-12T20:08:13.364Z,67.50
2019-03-12T20:10:47.675Z,67.20
2019-03-12T20:13:36.005Z,66.50
2019-03-12T20:16:24.691Z,67.90
2019-03-12T20:19:25.315Z,67.20
2019-03-12T20:22:30.283Z,68.00
2019-03-12T20:25:18.883Z,67.00
2019-03-12T20:27:56.893Z,67.40
2019-03-12T20:31:02.267Z,67.40
2019-03-12T20:33:39.948Z,67.10
2019-03-12T20:36:30.889Z,66.20
2019-03-12T20:39:32.771Z,67.60
2019-03-12T20:42:37.851Z,66.70
2019-03-12T20:45:29.228Z,67.60
2019-03-12T20:48:21.958Z,66.30
2019-03-12T20:51:13.275Z,65.50
2019-03-12T20:54:07.275Z,66.20
2019-03-12T20:56:51.465Z,67.30
2019-03-12T20:59:53.251Z,67.90
2019-03-12T21:02:30.933Z,68.20
2019-03-12T21:05:28.306Z,68.70
2019-03-12T21:08:33.324Z,68.60
2019-03-12T21:11:38.611Z,68.60
2019-03-12T21:14:45.403Z,67.70
2019-03-12T21:17:26.217Z,68.30
2019-03-12T21:20:19.219Z,68.60
2019-03-12T21:23:07.611Z,67.30
2019-03-12T21:25:55.845Z,67.30
2019-03-12T21:28:51.978Z,67.80
2019-03-12T21:31:20.860Z,67.50
2019-03-12T21:33:49.829Z,67.20
2019-03-12T21:36:18.708Z,68.70
2019-03-12T21:38:47.619Z,68.20
2019-03-12T21:41:16.483Z,68.90
2019-03-12T21:43:45.420Z,69.40
2019-03-12T21:46:14.325Z,68.80
2019-03-12T21:48:43.186Z,69.60
2019-03-12T21:51:12.036Z,68.30
2019-03-12T21:53:40.920Z,68.60
2019-03-12T21:56:09.731Z,67.80
2019-03-12T21:58:38.555Z,67.20
2019-03-12T22:01:07.419Z,68.20
2019-03-12T22:03:36.260Z,68.70
2019-03-12T22:06:05.091Z,67.50
2019-03-12T22:08:33.962Z,67.90
2019-03-12T22:11:02.739Z,66.80
2019-03-12T22:13:31.515Z,67.10
2019-03-12T22:16:00.371Z,68.60
2019-03-12T22:18:29.193Z,67.90
2019-03-12T22:20:58.019Z,67.50
2019-03-12T22:23:28.558Z,67.60
2019-03-12T22:25:57.380Z,68.00
2019-03-12T22:28:26.297Z,68.10
2019-03-12T22:30:55.165Z,68.40
2019-03-12T22:33:23.995Z,68.10
2019-03-12T22:35:52.835Z,67.40
2019-03-12T22:38:21.612Z,66.80
2019-03-12T22:40:50.435Z,66.80
2019-03-12T22:43:19.266Z,67.00
2019-03-12T22:45:48.155Z,68.20
2019-03-12T22:48:16.939Z,65.50
2019-03-12T22:50:45.771Z,67.90
2019-03-12T22:53:14.659Z,67.10
2019-03-12T22:55:43.426Z,68.90
2019-03-12T22:58:12.259Z,66.70
2019-03-12T23:00:42.140Z,66.60
2019-03-12T23:03:10.987Z,67.70
2019-03-12T23:05:39.739Z,68.50
2019-03-12T23:08:09.003Z,66.50
2019-03-12T23:10:38.271Z,65.20
2019-03-12T23:13:07.117Z,66.10
2019-03-12T23:15:36.077Z,65.80
2019-03-12T23:18:05.007Z,66.80
2019-03-12T23:20:33.843Z,68.00
2019-03-12T23:23:02.643Z,65.70
2019-03-12T23:25:31.465Z,65.80
2019-03-12T23:28:00.219Z,64.60
2019-03-12T23:30:29.169Z,65.20
2019-03-12T23:32:57.972Z,64.80
2019-03-12T23:35:26.762Z,64.80
2019-03-12T23:37:55.595Z,64.50
2019-03-12T23:40:24.331Z,64.90
2019-03-12T23:42:53.163Z,65.80
2019-03-12T23:45:21.987Z,64.40
2019-03-12T23:47:50.871Z,65.10
2019-03-12T23:50:19.941Z,63.40
2019-03-12T23:52:48.851Z,63.50
2019-03-12T23:55:18.737Z,64.20
2019-03-12T23:57:47.611Z,64.00
